createdAt,value
2022-08-26T00:01:19.068Z,28.36
2022-08-26T00:11:30.325Z,28.40
2022-08-26T00:21:37.529Z,28.39
2022-08-26T00:31:45.350Z,28.36
2022-08-26T00:41:52.168Z,28.25
2022-08-26T00:51:58.693Z,28.29
2022-08-26T01:02:06.678Z,28.23
2022-08-26T01:12:21.995Z,28.21
2022-08-26T01:22:28.842Z,28.22
2022-08-26T01:32:35.195Z,28.20
2022-08-26T01:42:41.614Z,28.08
2022-08-26T01:52:51.674Z,28.13
2022-08-26T02:02:59.624Z,28.04
2022-08-26T02:13:05.857Z,27.95
2022-08-26T02:23:12.019Z,28.01
2022-08-26T02:33:18.317Z,28.00
2022-08-26T02:43:31.285Z,27.90
2022-08-26T02:53:36.378Z,27.86
2022-08-26T03:03:42.704Z,27.84
2022-08-26T03:13:49.122Z,27.94
2022-08-26T03:23:55.827Z,27.76
2022-08-26T03:34:05.473Z,27.76
2022-08-26T03:44:11.737Z,27.82
2022-08-26T03:54:17.867Z,27.75
2022-08-26T04:04:24.565Z,27.78
2022-08-26T04:14:30.969Z,27.74
2022-08-26T04:24:38.641Z,27.77
2022-08-26T04:34:44.950Z,27.75
2022-08-26T04:44:51.367Z,27.77
2022-08-26T04:54:57.276Z,27.76
2022-08-26T05:05:03.516Z,27.80
2022-08-26T05:15:10.489Z,27.86
2022-08-26T05:25:16.795Z,27.86
2022-08-26T05:35:23.038Z,27.86
2022-08-26T05:45:29.856Z,27.87
2022-08-26T05:55:36.068Z,27.82
2022-08-26T06:05:45.441Z,27.90
2022-08-26T06:15:51.707Z,27.82
2022-08-26T06:25:58.254Z,27.75
2022-08-26T06:36:04.386Z,27.89
2022-08-26T06:46:10.654Z,27.93
2022-08-26T06:56:18.414Z,27.92
2022-08-26T07:06:25.353Z,27.95
2022-08-26T07:16:32.091Z,27.97
2022-08-26T07:26:39.296Z,27.97
2022-08-26T07:36:50.337Z,27.98
2022-08-26T07:46:56.452Z,27.95
2022-08-26T07:57:05.039Z,28.00
2022-08-26T08:07:14.752Z,28.07
2022-08-26T08:17:20.999Z,28.13
2022-08-26T08:27:28.669Z,28.11
2022-08-26T08:37:36.320Z,28.20
2022-08-26T08:47:44.625Z,28.17
2022-08-26T08:57:53.577Z,28.20
2022-08-26T09:08:00.137Z,28.23
2022-08-26T09:18:06.366Z,28.30
2022-08-26T09:28:12.880Z,28.33
2022-08-26T09:38:19.618Z,28.40
2022-08-26T09:48:26.605Z,28.44
2022-08-26T09:58:33.099Z,28.51
2022-08-26T10:08:39.770Z,28.54
2022-08-26T10:18:45.828Z,28.59
2022-08-26T10:28:52.559Z,28.64
2022-08-26T10:38:59.094Z,28.74
2022-08-26T10:49:06.526Z,28.84
2022-08-26T10:59:13.261Z,28.85
2022-08-26T11:09:19.698Z,28.83
2022-08-26T11:19:56.821Z,28.84
2022-08-26T11:29:42.594Z,28.79
2022-08-26T11:39:54.821Z,28.79
2022-08-26T11:50:00.522Z,28.72
2022-08-26T12:00:07.431Z,28.38
2022-08-26T12:10:17.142Z,28.26
2022-08-26T12:20:23.592Z,28.19
2022-08-26T12:30:29.894Z,28.34
2022-08-26T12:40:37.823Z,28.23
2022-08-26T12:50:44.650Z,27.96
2022-08-26T13:00:50.959Z,27.98
2022-08-26T13:10:57.286Z,27.58
2022-08-26T13:21:03.706Z,28.04
2022-08-26T13:31:11.423Z,27.57
2022-08-26T13:41:18.358Z,27.77
2022-08-26T13:51:29.452Z,27.71
2022-08-26T14:01:36.501Z,27.74
2022-08-26T14:11:50.761Z,27.90
2022-08-26T14:21:55.854Z,27.73
2022-08-26T14:32:03.063Z,27.82
2022-08-26T14:42:10.344Z,27.91
2022-08-26T14:52:17.908Z,28.03
2022-08-26T15:02:33.581Z,27.94
2022-08-26T15:12:36.890Z,27.90
2022-08-26T15:22:43.449Z,27.94
2022-08-26T15:32:50.384Z,28.04
2022-08-26T15:43:11.287Z,28.02
2022-08-26T15:53:09.103Z,28.06
2022-08-26T16:03:16.384Z,27.97
2022-08-26T16:13:22.901Z,27.95
2022-08-26T16:23:29.352Z,27.94
2022-08-26T16:33:36.443Z,27.98
2022-08-26T16:43:44.443Z,28.05
2022-08-26T16:53:51.895Z,27.88
2022-08-26T17:03:58.853Z,27.79
2022-08-26T17:14:06.029Z,27.70
2022-08-26T17:24:12.711Z,27.72
2022-08-26T17:34:18.776Z,27.68
2022-08-26T17:44:25.482Z,27.70
2022-08-26T17:54:32.408Z,27.75
2022-08-26T18:04:39.819Z,27.85
2022-08-26T18:14:46.879Z,27.86
2022-08-26T18:24:58.689Z,27.90
2022-08-26T18:35:05.633Z,27.83
2022-08-26T18:45:16.385Z,27.71
2022-08-26T18:55:23.118Z,27.87
2022-08-26T19:05:30.467Z,27.84
2022-08-26T19:15:36.620Z,27.75
2022-08-26T19:25:43.429Z,27.56
2022-08-26T19:35:51.852Z,27.73
2022-08-26T19:45:58.652Z,27.35
2022-08-26T19:56:05.351Z,27.45
2022-08-26T20:06:12.661Z,27.63
2022-08-26T20:16:20.176Z,27.71
2022-08-26T20:26:27.034Z,27.50
2022-08-26T20:36:33.925Z,27.54
2022-08-26T20:46:41.149Z,27.56
2022-08-26T20:56:48.624Z,27.59
2022-08-26T21:06:55.603Z,27.57
2022-08-26T21:17:02.953Z,27.53
2022-08-26T21:27:09.792Z,27.49
2022-08-26T21:37:17.175Z,27.53
2022-08-26T21:47:24.447Z,27.25
2022-08-26T21:57:31.900Z,27.08
2022-08-26T22:07:38.983Z,26.95
2022-08-26T22:17:45.743Z,27.46
2022-08-26T22:27:52.101Z,27.47
2022-08-26T22:37:58.785Z,27.41
2022-08-26T22:48:05.087Z,27.41
2022-08-26T22:58:12.514Z,27.35
2022-08-26T23:08:19.011Z,27.13
2022-08-26T23:18:26.134Z,27.15
2022-08-26T23:28:33.731Z,27.14
2022-08-26T23:38:40.823Z,26.94
2022-08-26T23:48:47.588Z,26.83
2022-08-26T23:58:53.956Z,26.80
